Time;durP1;ratioP1;P1;durP2;ratioP2;P2;SDS_P1;SDS_P2;PMS_P1;PMS_P2;Temp;Humidity;BMP_temperature;BMP_pressure;BME280_temperature;BME280_humidity;BME280_pressure;Samples;Min_cycle;Max_cycle;Signal;HPM_P1;HPM_P2
2022/09/09 00:00:19;;;;;;;5.32;1.15;;;16.00;99.90;;;;;;5054237;28;20421;-84
2022/09/09 00:02:59;;;;;;;3.28;1.27;;;16.00;99.90;;;;;;5036564;28;20055;-83
2022/09/09 00:05:59;;;;;;;2.47;1.02;;;16.00;99.90;;;;;;5053116;28;20043;-84
2022/09/09 00:08:48;;;;;;;5.70;1.00;;;16.00;99.90;;;;;;5021456;28;20041;-83
2022/09/09 00:11:19;;;;;;;3.42;0.88;;;16.00;99.90;;;;;;5035819;28;20390;-83
2022/09/09 00:13:56;;;;;;;2.30;1.25;;;16.00;99.90;;;;;;5055139;28;20041;-83
2022/09/09 00:16:27;;;;;;;2.58;1.30;;;15.90;99.90;;;;;;5034700;28;20041;-82
2022/09/09 00:19:00;;;;;;;1.95;1.17;;;15.90;99.90;;;;;;5036439;28;20040;-82
2022/09/09 00:21:34;;;;;;;4.78;1.92;;;15.80;99.90;;;;;;5035571;28;20470;-82
2022/09/09 00:24:09;;;;;;;4.90;1.25;;;15.90;99.90;;;;;;5054425;28;20041;-82
2022/09/09 00:26:40;;;;;;;3.90;1.10;;;15.90;99.90;;;;;;5036294;28;20044;-83
2022/09/09 00:29:22;;;;;;;7.95;1.40;;;15.90;99.90;;;;;;5036627;28;20045;-82
2022/09/09 00:31:49;;;;;;;4.18;1.15;;;16.00;99.90;;;;;;5049605;28;20045;-82
2022/09/09 00:34:24;;;;;;;4.88;1.17;;;16.10;99.90;;;;;;5039350;28;20045;-82
2022/09/09 00:36:53;;;;;;;3.78;1.45;;;16.10;99.90;;;;;;5036426;28;20033;-83
2022/09/09 00:39:28;;;;;;;2.20;1.30;;;16.10;99.90;;;;;;5035089;28;20478;-83
2022/09/09 00:42:23;;;;;;;4.90;1.98;;;16.10;99.90;;;;;;5019868;28;20063;-82
2022/09/09 00:45:20;;;;;;;3.60;1.17;;;16.10;99.90;;;;;;5002096;28;20045;-83
2022/09/09 00:47:50;;;;;;;7.63;1.38;;;16.20;99.90;;;;;;5020224;28;20052;-83
2022/09/09 00:50:29;;;;;;;2.28;1.40;;;16.10;99.90;;;;;;5053489;28;20033;-83
2022/09/09 00:53:17;;;;;;;7.07;1.63;;;16.10;99.90;;;;;;5019481;28;20052;-82
2022/09/09 00:56:04;;;;;;;2.97;1.13;;;16.10;99.90;;;;;;5019217;28;20367;-83
2022/09/09 00:58:30;;;;;;;4.72;1.10;;;16.10;99.90;;;;;;5035478;28;20033;-83
2022/09/09 01:01:11;;;;;;;3.75;2.47;;;16.00;99.90;;;;;;5046461;28;20041;-83
2022/09/09 01:03:42;;;;;;;3.50;1.80;;;16.00;99.90;;;;;;5042911;28;20037;-83
2022/09/09 01:06:26;;;;;;;5.07;1.73;;;16.00;99.90;;;;;;5034950;28;20390;-83
2022/09/09 01:09:22;;;;;;;5.28;1.90;;;15.90;99.90;;;;;;5036134;28;20040;-83
2022/09/09 01:12:18;;;;;;;2.83;1.40;;;15.90;99.90;;;;;;5036208;28;20139;-84
2022/09/09 01:14:54;;;;;;;4.10;1.40;;;15.80;99.90;;;;;;5033978;28;20056;-83
2022/09/09 01:17:29;;;;;;;2.90;1.30;;;15.80;99.90;;;;;;5035186;28;20045;-84
2022/09/09 01:20:25;;;;;;;3.40;1.70;;;15.70;99.90;;;;;;5020599;28;20044;-84
2022/09/09 01:23:25;;;;;;;3.60;1.73;;;15.70;99.90;;;;;;5019991;28;20053;-84
2022/09/09 01:26:23;;;;;;;4.30;1.30;;;15.60;99.90;;;;;;5037974;28;20052;-84
2022/09/09 01:28:54;;;;;;;5.93;1.40;;;15.60;99.90;;;;;;5038295;28;20298;-83
2022/09/09 01:31:41;;;;;;;3.33;1.33;;;15.60;99.90;;;;;;5035576;28;20397;-83
2022/09/09 01:34:18;;;;;;;3.38;1.65;;;15.50;99.90;;;;;;5035133;28;20494;-83
2022/09/09 01:36:56;;;;;;;2.15;1.17;;;15.50;99.90;;;;;;5034596;28;20044;-81
2022/09/09 01:39:22;;;;;;;4.25;1.90;;;15.50;99.90;;;;;;5030889;28;20045;-82
2022/09/09 01:41:57;;;;;;;3.13;1.77;;;15.40;99.90;;;;;;5035132;28;20442;-82
2022/09/09 01:44:25;;;;;;;4.38;2.05;;;15.40;99.90;;;;;;5052512;28;20036;-80
2022/09/09 01:46:51;;;;;;;5.97;2.55;;;15.30;99.90;;;;;;5037034;28;20040;-81
2022/09/09 01:49:20;;;;;;;3.28;1.95;;;15.30;99.90;;;;;;5033894;28;20040;-81
2022/09/09 01:51:51;;;;;;;3.17;1.25;;;15.30;99.90;;;;;;5053070;28;20082;-81
2022/09/09 01:54:22;;;;;;;4.97;1.92;;;15.30;99.90;;;;;;5033808;28;20056;-81
2022/09/09 01:56:55;;;;;;;5.88;1.90;;;15.30;99.90;;;;;;5034323;28;20056;-82
2022/09/09 01:59:26;;;;;;;2.58;1.63;;;15.30;99.90;;;;;;5033358;28;20056;-81
2022/09/09 02:02:35;;;;;;;2.05;1.25;;;15.30;99.90;;;;;;5035018;28;20509;-80
2022/09/09 02:05:39;;;;;;;3.25;1.60;;;15.40;99.90;;;;;;5032495;28;20044;-81
2022/09/09 02:08:21;;;;;;;6.18;1.90;;;15.50;99.90;;;;;;5034363;28;20124;-81
2022/09/09 02:11:05;;;;;;;4.77;1.50;;;15.50;99.90;;;;;;5034545;28;20379;-81
2022/09/09 02:13:39;;;;;;;2.58;1.10;;;15.50;99.90;;;;;;5052710;28;20371;-81
2022/09/09 02:16:30;;;;;;;3.50;1.58;;;15.50;99.90;;;;;;5023088;28;20100;-81
2022/09/09 02:19:25;;;;;;;2.47;1.23;;;15.40;99.90;;;;;;5042994;28;20506;-81
2022/09/09 02:22:01;;;;;;;2.58;1.33;;;15.40;99.90;;;;;;5033030;28;20124;-81
2022/09/09 02:24:30;;;;;;;4.40;1.45;;;15.40;99.90;;;;;;5050843;28;20037;-81
2022/09/09 02:27:11;;;;;;;3.60;2.50;;;15.40;99.90;;;;;;5033742;28;20051;-80
2022/09/09 02:29:42;;;;;;;4.07;1.45;;;15.30;99.90;;;;;;5052014;28;20378;-80
2022/09/09 02:32:16;;;;;;;3.80;1.40;;;15.30;99.90;;;;;;5034043;28;20060;-80
2022/09/09 02:34:51;;;;;;;5.55;1.35;;;15.30;99.90;;;;;;5017364;28;20045;-81
2022/09/09 02:37:21;;;;;;;5.72;1.30;;;15.30;99.90;;;;;;5017624;28;20068;-81
2022/09/09 02:39:51;;;;;;;4.65;1.77;;;15.20;99.90;;;;;;5034408;28;20477;-80
2022/09/09 02:42:20;;;;;;;6.25;1.52;;;15.20;99.90;;;;;;5033147;28;20393;-81
2022/09/09 02:44:47;;;;;;;3.45;1.00;;;15.20;99.90;;;;;;5033139;28;20049;-80
2022/09/09 02:47:36;;;;;;;3.88;1.23;;;15.20;99.90;;;;;;5033642;28;20068;-81
2022/09/09 02:50:27;;;;;;;1.60;0.77;;;15.20;99.90;;;;;;5033065;28;20386;-81
2022/09/09 02:53:05;;;;;;;3.40;1.35;;;15.20;99.90;;;;;;5034236;28;20379;-81
2022/09/09 02:55:39;;;;;;;1.83;0.90;;;15.30;99.90;;;;;;5027827;28;20052;-81
2022/09/09 02:58:11;;;;;;;2.80;1.20;;;15.40;99.90;;;;;;5034820;28;20378;-80
2022/09/09 03:00:38;;;;;;;;;;;15.40;99.90;;;;;;5053528;28;20049;-81
2022/09/09 03:03:06;;;;;;;5.38;1.52;;;15.40;99.90;;;;;;5035762;28;19909;-80
2022/09/09 03:05:34;;;;;;;4.03;1.60;;;15.40;99.90;;;;;;5033385;28;20048;-80
2022/09/09 03:08:00;;;;;;;3.05;1.40;;;15.30;99.90;;;;;;5034314;28;20045;-80
2022/09/09 03:10:26;;;;;;;3.90;1.95;;;15.30;99.90;;;;;;5036648;28;20056;-80
2022/09/09 03:12:53;;;;;;;3.25;1.00;;;15.20;99.90;;;;;;5036710;28;20045;-80
2022/09/09 03:15:19;;;;;;;2.42;1.25;;;15.20;99.90;;;;;;5036355;28;20047;-81
2022/09/09 03:17:46;;;;;;;3.50;1.10;;;15.20;99.90;;;;;;5036961;28;20041;-80
2022/09/09 03:20:12;;;;;;;4.07;1.50;;;15.20;99.90;;;;;;5041042;28;20481;-80
2022/09/09 03:22:38;;;;;;;3.65;1.25;;;15.20;99.90;;;;;;5061318;28;20047;-81
2022/09/09 03:25:06;;;;;;;6.03;1.17;;;15.10;99.90;;;;;;5055329;28;20025;-80
2022/09/09 03:27:34;;;;;;;5.43;1.58;;;15.10;99.90;;;;;;5030061;28;20609;-80
2022/09/09 03:30:03;;;;;;;5.82;1.35;;;15.10;99.90;;;;;;5032925;28;20092;-81
2022/09/09 03:32:31;;;;;;;3.42;1.00;;;15.10;99.90;;;;;;5033264;28;20049;-81
2022/09/09 03:34:57;;;;;;;5.30;1.10;;;15.10;99.90;;;;;;5033302;28;20052;-82
2022/09/09 03:37:24;;;;;;;4.13;1.95;;;15.10;99.90;;;;;;5032880;28;20044;-82
2022/09/09 03:39:52;;;;;;;2.53;0.70;;;15.10;99.90;;;;;;5014258;28;20483;-82
2022/09/09 03:42:19;;;;;;;1.75;1.08;;;15.10;99.90;;;;;;5031743;28;20052;-82
2022/09/09 03:44:49;;;;;;;3.95;1.25;;;15.10;99.90;;;;;;5032635;28;20501;-82
2022/09/09 03:47:21;;;;;;;3.92;1.13;;;15.10;99.90;;;;;;5033600;28;20037;-83
2022/09/09 03:49:48;;;;;;;4.47;1.33;;;15.10;99.90;;;;;;5018456;28;20063;-82
2022/09/09 03:52:15;;;;;;;5.22;1.95;;;15.10;99.90;;;;;;5032815;28;20049;-83
2022/09/09 03:54:42;;;;;;;5.32;1.40;;;15.10;99.90;;;;;;5032131;28;20045;-82
2022/09/09 03:57:11;;;;;;;1.88;1.08;;;15.10;99.90;;;;;;5033295;28;20037;-82
2022/09/09 03:59:38;;;;;;;1.75;0.80;;;15.00;99.90;;;;;;5028732;28;20052;-82
2022/09/09 04:02:04;;;;;;;2.67;1.10;;;15.00;99.90;;;;;;5033161;28;20048;-82
2022/09/09 04:04:31;;;;;;;2.13;0.88;;;15.00;99.90;;;;;;5030238;28;20041;-82
2022/09/09 04:06:57;;;;;;;6.93;1.13;;;14.90;99.90;;;;;;5034962;28;20049;-83
2022/09/09 04:09:24;;;;;;;3.70;1.00;;;14.90;99.90;;;;;;5031655;28;20033;-80
2022/09/09 04:11:52;;;;;;;4.03;0.63;;;14.90;99.90;;;;;;5031090;28;20398;-81
2022/09/09 04:14:20;;;;;;;5.78;1.00;;;14.80;99.90;;;;;;5027935;28;20123;-83
2022/09/09 04:16:46;;;;;;;3.45;0.75;;;14.80;99.90;;;;;;5011473;28;20472;-83
2022/09/09 04:19:13;;;;;;;4.25;0.60;;;14.80;99.90;;;;;;5031805;28;20057;-81
2022/09/09 04:21:41;;;;;;;5.30;0.70;;;14.80;99.90;;;;;;5029674;28;20045;-83
2022/09/09 04:24:08;;;;;;;5.78;0.70;;;14.90;99.90;;;;;;5029364;28;20422;-83
2022/09/09 04:26:36;;;;;;;1.38;0.50;;;15.00;99.90;;;;;;5028630;28;20037;-81
2022/09/09 04:29:03;;;;;;;5.80;0.75;;;14.90;99.90;;;;;;5033383;28;20378;-82
2022/09/09 04:31:30;;;;;;;0.82;0.47;;;14.90;99.90;;;;;;5032528;28;20067;-82
2022/09/09 04:33:57;;;;;;;2.45;0.68;;;15.00;99.90;;;;;;5033021;28;20046;-85
2022/09/09 04:36:24;;;;;;;6.13;1.02;;;14.90;99.90;;;;;;5031693;28;20478;-84
2022/09/09 04:38:54;;;;;;;2.75;0.50;;;15.00;99.90;;;;;;5031096;28;20466;-85
2022/09/09 04:41:20;;;;;;;4.57;0.70;;;15.00;99.90;;;;;;5027700;28;20041;-85
2022/09/09 04:43:51;;;;;;;1.85;0.52;;;15.10;99.90;;;;;;5033181;28;20049;-85
2022/09/09 04:46:17;;;;;;;1.85;0.60;;;15.10;99.90;;;;;;5031805;28;20056;-84
2022/09/09 04:48:44;;;;;;;3.25;0.70;;;15.10;99.90;;;;;;5032176;28;20052;-86
2022/09/09 04:51:13;;;;;;;3.08;0.60;;;15.10;99.90;;;;;;5033166;28;20056;-85
2022/09/09 04:53:40;;;;;;;1.48;0.40;;;15.10;99.90;;;;;;5034898;28;20049;-83
2022/09/09 04:56:12;;;;;;;3.20;0.60;;;15.20;99.90;;;;;;5021031;28;20455;-86
2022/09/09 04:58:45;;;;;;;0.95;0.40;;;15.30;99.90;;;;;;5034786;28;20068;-86
2022/09/09 05:01:17;;;;;;;3.45;0.60;;;15.30;99.90;;;;;;5019825;28;20037;-85
2022/09/09 05:03:45;;;;;;;4.47;1.02;;;15.30;99.90;;;;;;5036104;28;20041;-85
2022/09/09 05:06:15;;;;;;;2.88;0.60;;;15.30;99.90;;;;;;5019371;28;20044;-85
2022/09/09 05:08:43;;;;;;;1.08;0.60;;;15.30;99.90;;;;;;5036038;28;20033;-85
2022/09/09 05:11:25;;;;;;;0.88;0.40;;;15.30;99.90;;;;;;5036041;28;20045;-85
2022/09/09 05:13:56;;;;;;;2.40;0.40;;;15.40;99.90;;;;;;5029246;28;20045;-84
2022/09/09 05:16:22;;;;;;;2.05;0.50;;;15.40;99.90;;;;;;5028355;28;20045;-83
2022/09/09 05:18:51;;;;;;;2.15;0.73;;;15.40;99.90;;;;;;5035236;28;20474;-85
2022/09/09 05:21:19;;;;;;;2.05;0.40;;;15.30;99.90;;;;;;5019919;28;20041;-84
2022/09/09 05:23:46;;;;;;;2.15;0.73;;;15.40;99.90;;;;;;5053945;28;20029;-83
2022/09/09 05:26:15;;;;;;;3.38;0.55;;;15.40;99.90;;;;;;5036585;28;20037;-82
2022/09/09 05:28:42;;;;;;;1.60;0.50;;;15.40;99.90;;;;;;5036582;28;20071;-82
2022/09/09 05:31:12;;;;;;;2.38;0.57;;;15.40;99.90;;;;;;5035777;28;20775;-82
2022/09/09 05:33:42;;;;;;;3.08;0.47;;;15.50;99.90;;;;;;5034831;28;20234;-82
2022/09/09 05:36:21;;;;;;;2.58;0.30;;;15.60;99.90;;;;;;5034768;28;20028;-82
2022/09/09 05:38:50;;;;;;;1.20;0.50;;;15.70;99.90;;;;;;5035567;28;20033;-82
2022/09/09 05:41:17;;;;;;;3.05;0.45;;;15.90;99.90;;;;;;5042103;28;20041;-82
2022/09/09 05:43:48;;;;;;;1.00;0.38;;;16.10;99.90;;;;;;5039929;28;20045;-81
2022/09/09 05:46:20;;;;;;;2.63;0.60;;;16.10;99.90;;;;;;5037019;28;20041;-81
2022/09/09 05:48:53;;;;;;;2.70;0.50;;;16.20;99.90;;;;;;5017180;28;20042;-81
2022/09/09 05:51:24;;;;;;;2.72;0.47;;;16.20;99.90;;;;;;5033399;28;20036;-83
2022/09/09 05:53:51;;;;;;;1.50;0.30;;;16.10;99.90;;;;;;5016891;28;20128;-83
2022/09/09 05:56:25;;;;;;;2.30;0.50;;;16.10;99.90;;;;;;5035133;28;20028;-82
2022/09/09 05:58:53;;;;;;;2.30;0.50;;;16.20;99.90;;;;;;5053082;28;20041;-82
2022/09/09 06:01:28;;;;;;;3.78;0.85;;;16.30;99.90;;;;;;5035528;28;20086;-83
2022/09/09 06:03:56;;;;;;;1.70;0.60;;;16.30;99.90;;;;;;5034574;28;20044;-82
2022/09/09 06:06:26;;;;;;;2.60;0.50;;;16.30;99.90;;;;;;5037848;28;20082;-83
2022/09/09 06:08:57;;;;;;;;;;;16.30;99.90;;;;;;5034605;28;20041;-82
2022/09/09 06:11:26;;;;;;;2.17;0.50;;;16.40;99.90;;;;;;5037256;28;20265;-84
2022/09/09 06:13:54;;;;;;;1.85;0.60;;;16.40;99.90;;;;;;5052814;28;20499;-81
2022/09/09 06:16:23;;;;;;;0.90;0.45;;;16.40;99.90;;;;;;5052339;28;20052;-84
2022/09/09 06:18:51;;;;;;;4.30;1.30;;;16.30;99.90;;;;;;5033958;28;20093;-81
2022/09/09 06:21:23;;;;;;;1.73;0.43;;;16.30;99.90;;;;;;5034798;28;20045;-81
2022/09/09 06:23:53;;;;;;;2.45;1.15;;;16.30;99.90;;;;;;5033133;28;20037;-82
2022/09/09 06:26:25;;;;;;;2.83;0.45;;;16.40;99.90;;;;;;5050223;28;20485;-82
2022/09/09 06:28:54;;;;;;;2.30;0.60;;;17.60;99.90;;;;;;5017277;28;20045;-81
2022/09/09 06:31:24;;;;;;;1.77;0.45;;;18.90;99.90;;;;;;5035855;28;20045;-82
2022/09/09 06:33:51;;;;;;;4.53;0.50;;;20.20;99.90;;;;;;5034319;28;20053;-83
2022/09/09 06:36:29;;;;;;;2.60;0.98;;;20.80;99.90;;;;;;5033787;28;20470;-83
2022/09/09 06:38:55;;;;;;;3.90;1.48;;;21.30;99.00;;;;;;5022544;28;20045;-81
2022/09/09 06:41:26;;;;;;;2.08;0.70;;;20.70;98.90;;;;;;5035408;28;20043;-85
2022/09/09 06:43:53;;;;;;;3.42;0.80;;;20.50;99.80;;;;;;5017413;28;20355;-83
2022/09/09 06:46:32;;;;;;;3.92;0.65;;;20.60;99.80;;;;;;5033299;28;20037;-83
2022/09/09 06:48:59;;;;;;;2.70;0.50;;;20.50;99.50;;;;;;5020988;28;20044;-83
2022/09/09 06:51:28;;;;;;;5.18;0.82;;;20.10;99.90;;;;;;5036654;28;20041;-86
2022/09/09 06:53:58;;;;;;;3.30;0.60;;;20.10;99.90;;;;;;5055805;28;20385;-84
2022/09/09 06:56:34;;;;;;;4.60;0.80;;;20.40;99.90;;;;;;5033961;28;20052;-85
2022/09/09 06:59:08;;;;;;;4.10;0.80;;;20.70;98.70;;;;;;5035797;28;20066;-84
2022/09/09 07:01:37;;;;;;;4.57;0.40;;;20.10;99.90;;;;;;5018889;28;20041;-84
2022/09/09 07:04:08;;;;;;;2.28;0.63;;;19.70;99.90;;;;;;5031502;28;20532;-81
2022/09/09 07:06:39;;;;;;;1.27;0.40;;;19.90;99.90;;;;;;5019490;28;20040;-84
2022/09/09 07:09:08;;;;;;;2.20;0.95;;;20.30;99.90;;;;;;5036460;28;20052;-86
2022/09/09 07:11:44;;;;;;;3.05;0.60;;;20.00;99.90;;;;;;5032994;28;20394;-85
2022/09/09 07:14:14;;;;;;;3.03;0.40;;;19.90;99.90;;;;;;5033513;28;20044;-85
2022/09/09 07:16:43;;;;;;;2.05;0.75;;;19.60;99.90;;;;;;5028915;28;20394;-85
2022/09/09 07:19:11;;;;;;;4.63;0.90;;;19.40;99.90;;;;;;5044781;28;20033;-85
2022/09/09 07:21:39;;;;;;;1.35;0.45;;;19.30;99.90;;;;;;5010921;28;20041;-86
2022/09/09 07:24:07;;;;;;;4.88;1.23;;;20.10;99.90;;;;;;5016897;28;20403;-85
2022/09/09 07:26:35;;;;;;;3.42;0.82;;;20.60;99.70;;;;;;5033884;28;20482;-85
2022/09/09 07:29:03;;;;;;;3.22;0.70;;;20.50;99.60;;;;;;5033784;28;20053;-85
2022/09/09 07:31:32;;;;;;;3.83;0.80;;;20.30;99.90;;;;;;5022711;28;20049;-85
2022/09/09 07:33:59;;;;;;;4.90;1.02;;;19.60;99.90;;;;;;5019395;28;20572;-84
2022/09/09 07:36:31;;;;;;;7.95;1.10;;;19.20;99.90;;;;;;5035818;28;20103;-84
2022/09/09 07:39:03;;;;;;;1.40;0.52;;;18.90;99.90;;;;;;5034230;28;20037;-83
2022/09/09 07:41:54;;;;;;;3.88;1.17;;;18.70;99.90;;;;;;5012008;28;20052;-85
2022/09/09 07:44:27;;;;;;;2.65;0.50;;;18.50;99.90;;;;;;5029604;28;20059;-84
2022/09/09 07:47:06;;;;;;;1.52;0.45;;;18.60;99.90;;;;;;5034226;28;20033;-85
2022/09/09 07:49:36;;;;;;;2.42;0.65;;;18.60;99.90;;;;;;5034238;28;20474;-84
2022/09/09 07:52:05;;;;;;;3.42;0.80;;;18.50;99.90;;;;;;5020825;28;20037;-84
2022/09/09 07:54:33;;;;;;;4.60;1.00;;;18.60;99.90;;;;;;5032450;28;20044;-85
2022/09/09 07:57:00;;;;;;;3.72;0.57;;;18.90;99.90;;;;;;5031663;28;20049;-84
2022/09/09 07:59:30;;;;;;;2.67;0.50;;;19.10;99.90;;;;;;5018053;28;20053;-85
2022/09/09 08:01:58;;;;;;;4.63;0.90;;;19.30;99.90;;;;;;5035030;28;20049;-84
2022/09/09 08:04:28;;;;;;;2.40;0.70;;;19.60;99.90;;;;;;5052933;28;20039;-84
2022/09/09 08:06:57;;;;;;;2.50;0.70;;;19.60;99.90;;;;;;5038020;28;20415;-84
2022/09/09 08:09:26;;;;;;;7.07;0.75;;;19.50;99.90;;;;;;5039494;28;20048;-83
2022/09/09 08:11:53;;;;;;;3.15;0.60;;;19.30;99.90;;;;;;5042011;28;20385;-83
2022/09/09 08:14:20;;;;;;;3.28;0.90;;;19.30;99.90;;;;;;5036588;28;20405;-83
2022/09/09 08:16:48;;;;;;;9.95;1.55;;;19.40;99.90;;;;;;5021945;28;20303;-85
2022/09/09 08:19:17;;;;;;;4.00;1.00;;;19.40;99.90;;;;;;5039541;28;20049;-85
2022/09/09 08:21:45;;;;;;;5.30;0.73;;;19.40;99.90;;;;;;5035312;28;20029;-87
2022/09/09 08:24:16;;;;;;;5.22;1.50;;;19.30;99.90;;;;;;5038700;28;20439;-90
2022/09/09 08:26:49;;;;;;;3.65;0.90;;;18.90;99.90;;;;;;5054341;28;20071;-87
2022/09/09 08:29:17;;;;;;;5.13;1.50;;;18.50;99.90;;;;;;5037245;28;20049;-87
2022/09/09 08:31:57;;;;;;;3.10;1.02;;;18.30;99.90;;;;;;5049990;28;20045;-88
2022/09/09 08:34:26;;;;;;;3.60;1.00;;;18.30;99.90;;;;;;5038178;28;20049;-89
2022/09/09 08:36:53;;;;;;;6.57;0.82;;;18.20;99.90;;;;;;5038679;28;20044;-89
2022/09/09 08:39:24;;;;;;;4.05;0.90;;;18.40;99.90;;;;;;5041886;28;20052;-89
2022/09/09 08:42:02;;;;;;;4.45;0.60;;;18.50;99.90;;;;;;5027384;28;20474;-89
2022/09/09 08:45:14;;;;;;;3.00;0.80;;;18.80;99.90;;;;;;5025159;28;20053;-89
2022/09/09 08:48:02;;;;;;;4.13;1.17;;;19.20;99.90;;;;;;5021070;28;20039;-89
2022/09/09 08:50:38;;;;;;;4.13;0.93;;;19.50;99.90;;;;;;5043234;28;20043;-88
2022/09/09 08:53:26;;;;;;;4.13;0.70;;;19.80;99.90;;;;;;5056112;28;20059;-87
2022/09/09 08:55:59;;;;;;;3.13;0.60;;;19.80;99.90;;;;;;5059488;28;20029;-88
2022/09/09 08:58:53;;;;;;;3.50;0.95;;;19.90;99.90;;;;;;5041313;28;20414;-88
2022/09/09 09:01:43;;;;;;;4.53;0.98;;;20.20;99.90;;;;;;5037345;28;20048;-86
2022/09/09 09:04:22;;;;;;;1.92;0.70;;;20.60;99.90;;;;;;5036070;28;20037;-86
2022/09/09 09:07:21;;;;;;;3.53;0.90;;;21.20;99.90;;;;;;5052450;28;20049;-88
2022/09/09 09:10:20;;;;;;;5.32;1.45;;;20.90;99.80;;;;;;5041470;28;20045;-86
2022/09/09 09:12:47;;;;;;;3.55;1.05;;;20.40;99.90;;;;;;5000783;28;20048;-87
2022/09/09 09:15:20;;;;;;;7.55;1.25;;;20.30;99.90;;;;;;5022660;28;20466;-87
2022/09/09 09:17:48;;;;;;;5.55;0.95;;;20.80;99.80;;;;;;5036634;28;20037;-86
2022/09/09 09:20:28;;;;;;;4.53;0.90;;;20.60;99.90;;;;;;5027696;28;20491;-86
2022/09/09 09:22:59;;;;;;;6.17;1.53;;;21.40;99.80;;;;;;5012748;28;20046;-87
2022/09/09 09:25:39;;;;;;;3.78;1.13;;;22.60;96.50;;;;;;5053969;28;20454;-87
2022/09/09 09:28:26;;;;;;;4.68;1.88;;;23.00;93.80;;;;;;5036695;28;20037;-85
2022/09/09 09:31:13;;;;;;;8.77;1.50;;;23.20;92.30;;;;;;5036283;28;20037;-86
2022/09/09 09:33:52;;;;;;;4.05;0.90;;;23.30;91.10;;;;;;5015039;28;20068;-86
2022/09/09 09:36:33;;;;;;;7.18;1.13;;;23.00;90.20;;;;;;5030296;28;20045;-88
2022/09/09 09:39:03;;;;;;;6.07;1.15;;;22.20;92.40;;;;;;5036977;28;20466;-86
2022/09/09 09:41:38;;;;;;;4.43;1.00;;;21.60;94.40;;;;;;5039133;28;20043;-87
2022/09/09 09:44:21;;;;;;;7.13;0.88;;;21.00;95.90;;;;;;5036787;28;20063;-84
2022/09/09 09:46:48;;;;;;;3.30;1.45;;;20.50;98.30;;;;;;5035586;28;20045;-86
2022/09/09 09:49:15;;;;;;;4.28;0.80;;;21.00;98.00;;;;;;5035642;28;20371;-87
2022/09/09 09:51:43;;;;;;;4.45;1.60;;;21.70;95.70;;;;;;5017318;28;20041;-87
2022/09/09 09:54:13;;;;;;;4.70;1.10;;;21.70;95.10;;;;;;5033076;28;20056;-86
2022/09/09 09:56:41;;;;;;;4.82;0.75;;;21.20;94.40;;;;;;5019058;28;20486;-87
2022/09/09 09:59:43;;;;;;;3.90;0.80;;;20.40;95.80;;;;;;5035950;28;20375;-85
2022/09/09 10:02:17;;;;;;;2.63;0.73;;;19.90;98.20;;;;;;5035645;28;20417;-86
2022/09/09 10:04:45;;;;;;;4.10;1.13;;;19.60;98.70;;;;;;5020090;28;20304;-86
2022/09/09 10:07:20;;;;;;;3.60;0.80;;;19.40;99.00;;;;;;5039621;28;20041;-87
2022/09/09 10:09:53;;;;;;;3.58;0.65;;;19.40;99.40;;;;;;5035897;28;20045;-86
2022/09/09 10:12:31;;;;;;;4.68;1.38;;;19.40;99.90;;;;;;5056460;28;20032;-87
2022/09/09 10:15:38;;;;;;;2.58;0.40;;;19.30;99.90;;;;;;5018916;28;20049;-86
2022/09/09 10:18:24;;;;;;;2.40;0.52;;;19.30;99.90;;;;;;5033660;28;20489;-86
2022/09/09 10:21:16;;;;;;;2.22;0.40;;;19.50;99.90;;;;;;5053620;28;20029;-85
2022/09/09 10:24:13;;;;;;;3.00;0.75;;;19.70;99.90;;;;;;5040502;28;20037;-88
2022/09/09 10:26:55;;;;;;;2.08;0.77;;;20.20;99.90;;;;;;5034769;28;20028;-87
2022/09/09 10:29:34;;;;;;;3.65;0.70;;;20.40;99.00;;;;;;5029390;28;20048;-86
2022/09/09 10:32:06;;;;;;;2.03;0.50;;;20.60;97.60;;;;;;5035124;28;20040;-86
2022/09/09 10:34:50;;;;;;;2.72;0.70;;;20.90;96.40;;;;;;5034413;28;20044;-87
2022/09/09 10:37:58;;;;;;;5.57;1.25;;;21.00;95.90;;;;;;5053401;28;20041;-87
2022/09/09 10:40:38;;;;;;;2.05;0.73;;;21.10;95.60;;;;;;5035491;28;20045;-87
2022/09/09 10:43:39;;;;;;;2.05;0.50;;;20.90;96.70;;;;;;5035265;28;20052;-85
2022/09/09 10:46:23;;;;;;;3.30;0.90;;;20.70;97.90;;;;;;5053010;28;20474;-89
2022/09/09 10:49:16;;;;;;;1.70;0.60;;;20.70;98.20;;;;;;5053023;28;20033;-87
2022/09/09 10:52:13;;;;;;;2.78;0.70;;;20.70;97.70;;;;;;5035022;28;20033;-87
2022/09/09 10:54:42;;;;;;;3.72;0.63;;;20.90;98.30;;;;;;5054918;28;20377;-86
2022/09/09 10:57:31;;;;;;;2.97;0.55;;;21.20;97.40;;;;;;5043536;28;20036;-86
2022/09/09 11:00:04;;;;;;;4.00;1.27;;;21.20;97.10;;;;;;5052740;28;20060;-85
2022/09/09 11:02:33;;;;;;;6.50;1.02;;;21.40;95.50;;;;;;5050807;28;20044;-84
2022/09/09 11:05:18;;;;;;;5.15;1.20;;;21.30;95.90;;;;;;5042488;28;20036;-85
2022/09/09 11:07:51;;;;;;;3.15;0.98;;;21.40;94.70;;;;;;5034511;28;20044;-86
2022/09/09 11:10:25;;;;;;;4.78;0.90;;;21.60;94.60;;;;;;5035789;28;20040;-84
2022/09/09 11:12:58;;;;;;;2.78;0.52;;;21.70;95.00;;;;;;5052233;28;20029;-85
2022/09/09 11:15:36;;;;;;;2.47;0.80;;;22.00;93.30;;;;;;5017249;28;20045;-85
2022/09/09 11:18:04;;;;;;;3.83;0.80;;;22.20;90.90;;;;;;5034939;28;20045;-88
2022/09/09 11:20:32;;;;;;;4.50;0.73;;;22.20;89.20;;;;;;5046699;28;20033;-87
2022/09/09 11:23:04;;;;;;;3.30;0.60;;;22.20;88.30;;;;;;5045326;28;20029;-86
2022/09/09 11:25:41;;;;;;;3.75;0.70;;;22.40;88.50;;;;;;5051984;28;20033;-87
2022/09/09 11:28:22;;;;;;;0.98;0.40;;;22.30;87.10;;;;;;5052437;28;20036;-84
2022/09/09 11:31:11;;;;;;;2.63;0.80;;;21.80;90.00;;;;;;5062203;28;20044;-86
2022/09/09 11:33:53;;;;;;;6.28;0.82;;;21.70;89.80;;;;;;5036144;28;20454;-82
2022/09/09 11:36:38;;;;;;;4.88;0.50;;;21.70;90.70;;;;;;5035468;28;20044;-82
2022/09/09 11:39:27;;;;;;;3.95;0.98;;;21.70;90.60;;;;;;5054255;28;20041;-82
2022/09/09 11:41:53;;;;;;;2.67;1.45;;;21.70;89.80;;;;;;5056538;28;20043;-84
2022/09/09 11:44:30;;;;;;;2.15;0.95;;;21.50;89.40;;;;;;5048711;28;20633;-81
2022/09/09 11:46:57;;;;;;;5.95;1.17;;;21.40;90.50;;;;;;5057146;28;20095;-82
2022/09/09 11:49:29;;;;;;;3.88;1.15;;;21.50;90.10;;;;;;5029972;28;20045;-82
2022/09/09 11:51:56;;;;;;;6.47;2.00;;;21.50;89.60;;;;;;5056308;28;20041;-82
2022/09/09 11:54:32;;;;;;;4.30;1.13;;;21.40;89.20;;;;;;5054735;28;20109;-82
2022/09/09 11:56:59;;;;;;;2.13;1.10;;;21.40;89.30;;;;;;5037463;28;20036;-86
2022/09/09 11:59:31;;;;;;;1.63;0.50;;;21.30;87.80;;;;;;5037674;28;20049;-83
2022/09/09 12:02:15;;;;;;;4.18;0.80;;;21.20;87.20;;;;;;5054659;28;20112;-83
2022/09/09 12:04:50;;;;;;;3.15;1.13;;;21.20;89.50;;;;;;5069028;28;20048;-83
2022/09/09 12:07:35;;;;;;;4.57;1.08;;;21.10;89.70;;;;;;5038062;28;20032;-83
2022/09/09 12:10:06;;;;;;;5.05;0.57;;;21.20;89.70;;;;;;5035834;28;20116;-83
2022/09/09 12:12:35;;;;;;;4.10;0.70;;;21.20;90.40;;;;;;5054938;28;20100;-83
2022/09/09 12:15:08;;;;;;;2.90;0.90;;;21.10;92.00;;;;;;5056588;28;20040;-83
2022/09/09 12:17:41;;;;;;;2.28;0.40;;;20.90;93.60;;;;;;5040310;28;20037;-83
2022/09/09 12:20:33;;;;;;;3.05;0.60;;;20.80;93.80;;;;;;5053144;28;20136;-84
2022/09/09 12:23:16;;;;;;;8.18;1.10;;;20.70;93.80;;;;;;5052810;28;20036;-86
2022/09/09 12:26:05;;;;;;;3.95;0.60;;;20.10;99.90;;;;;;5054040;28;20378;-79
2022/09/09 12:28:58;;;;;;;1.85;0.30;;;17.90;99.90;;;;;;5054398;28;20053;-76
2022/09/09 12:31:39;;;;;;;2.75;0.52;;;15.90;99.90;;;;;;5056341;28;20040;-77
2022/09/09 12:34:32;;;;;;;2.20;0.68;;;15.10;99.90;;;;;;5049202;28;20036;-75
2022/09/09 12:37:18;;;;;;;2.45;0.55;;;15.00;99.90;;;;;;5050359;28;20049;-74
2022/09/09 12:39:55;;;;;;;4.50;0.60;;;15.10;99.90;;;;;;5048099;28;20036;-75
2022/09/09 12:42:23;;;;;;;1.08;0.50;;;15.60;99.90;;;;;;5050400;28;20032;-75
2022/09/09 12:44:52;;;;;;;2.83;0.50;;;15.90;99.90;;;;;;5052070;28;20358;-75
2022/09/09 12:47:23;;;;;;;2.60;0.70;;;16.20;99.90;;;;;;5054646;28;20474;-75
2022/09/09 12:49:50;;;;;;;4.88;0.82;;;16.60;99.90;;;;;;5052620;28;20029;-75
2022/09/09 12:52:29;;;;;;;5.68;1.70;;;16.90;99.90;;;;;;5045532;28;20041;-74
2022/09/09 12:54:58;;;;;;;4.40;1.67;;;16.90;99.90;;;;;;5052902;28;20039;-75
2022/09/09 12:57:25;;;;;;;3.67;1.13;;;17.00;99.90;;;;;;5054827;28;20041;-75
2022/09/09 12:59:53;;;;;;;3.67;1.23;;;17.20;99.90;;;;;;5053922;28;20053;-75
2022/09/09 13:02:22;;;;;;;5.72;1.55;;;17.40;99.90;;;;;;5053979;28;20370;-75
2022/09/09 13:04:50;;;;;;;5.38;1.17;;;17.40;99.90;;;;;;5052427;28;20135;-75
2022/09/09 13:07:18;;;;;;;3.30;0.90;;;17.30;99.90;;;;;;5054104;28;20032;-74
2022/09/09 13:09:46;;;;;;;6.65;1.88;;;17.20;99.90;;;;;;5053492;28;20032;-74
2022/09/09 13:12:22;;;;;;;4.57;1.83;;;17.00;99.90;;;;;;5053783;28;20029;-74
2022/09/09 13:14:54;;;;;;;4.13;2.00;;;16.80;99.90;;;;;;5052407;28;20044;-74
2022/09/09 13:17:28;;;;;;;5.38;1.75;;;16.60;99.90;;;;;;5054111;28;20052;-74
2022/09/09 13:19:56;;;;;;;6.47;2.05;;;16.30;99.90;;;;;;5053427;28;20029;-74
2022/09/09 13:22:33;;;;;;;7.32;2.45;;;16.10;99.90;;;;;;5053645;28;20033;-75
2022/09/09 13:25:18;;;;;;;13.32;3.03;;;16.00;99.90;;;;;;5052496;28;20032;-75